createdAt,value
2023-04-20T16:35:16.783Z,101668.53
2023-04-20T16:37:50.579Z,101668.53
2023-04-20T16:40:22.064Z,101664.06
2023-04-20T16:42:50.435Z,101666.88
2023-04-20T16:45:18.686Z,101671.34
2023-04-20T16:56:09.105Z,101671.81
2023-04-20T16:58:38.970Z,101671.81
2023-04-20T17:01:09.453Z,101677.41
2023-04-20T17:03:37.813Z,101670.16
2023-04-20T17:06:08.178Z,101672.97
2023-04-20T17:08:40.215Z,101672.97
2023-04-20T17:11:12.649Z,101672.97
2023-04-20T17:13:45.951Z,101675.78
2023-04-20T17:16:28.572Z,101675.78
2023-04-20T17:18:56.730Z,101674.59
2023-04-20T17:21:25.952Z,101676.59
2023-04-20T17:23:53.885Z,101677.41
2023-04-20T17:26:23.383Z,101670.16
2023-04-20T17:28:51.457Z,101673.78
2023-04-20T17:31:19.638Z,101672.97
2023-04-20T17:33:47.656Z,101670.16
2023-04-20T17:36:15.607Z,101674.13
2023-04-20T17:38:47.548Z,101681.38
2023-04-20T17:41:15.742Z,101681.38
2023-04-20T17:43:45.196Z,101686.97
2023-04-20T17:46:13.191Z,101681.38
2023-04-20T17:48:41.376Z,101686.16
2023-04-20T17:51:11.385Z,101689.78
2023-04-20T17:53:39.434Z,101680.56
2023-04-20T17:56:07.569Z,101686.97
2023-04-20T17:58:35.738Z,101688.59
2023-04-20T18:01:05.605Z,101690.59
2023-04-20T18:03:38.586Z,101694.22
2023-04-20T18:06:17.536Z,101698.19
2023-04-20T18:08:50.058Z,101701.81
2023-04-20T18:11:18.189Z,101703.78
2023-04-20T18:13:49.050Z,101703.78
2023-04-20T18:16:18.705Z,101707.41
2023-04-20T18:18:46.937Z,101715.81
2023-04-20T18:21:17.888Z,101716.63
2023-04-20T18:23:46.533Z,101715.81
2023-04-20T18:26:17.676Z,101718.63
2023-04-20T18:28:45.834Z,101720.59
2023-04-20T18:35:20.207Z,101724.56
2023-04-20T18:37:51.340Z,101724.56
2023-04-20T18:40:19.888Z,101727.84
2023-04-20T18:42:51.306Z,101727.03
2023-04-20T18:45:23.698Z,101727.84
2023-04-20T18:47:51.742Z,101729.00
2023-04-20T18:50:21.643Z,101729.00
2023-04-20T18:52:50.114Z,101729.00
2023-04-20T18:55:18.439Z,101730.63
2023-04-20T18:57:52.753Z,101732.63
2023-04-20T19:00:21.110Z,101726.22
2023-04-20T19:02:51.734Z,101727.03
2023-04-20T19:05:23.658Z,101727.84
2023-04-20T19:08:14.412Z,101726.22
2023-04-20T19:10:52.691Z,101721.41
2023-04-20T19:13:32.864Z,101721.41
2023-04-20T19:16:09.414Z,101723.41
2023-04-20T19:18:40.967Z,101719.44
2023-04-20T19:21:19.311Z,101727.84
2023-04-20T19:23:52.830Z,101726.22
2023-04-20T19:26:24.223Z,101718.63
2023-04-20T19:28:53.730Z,101733.44
2023-04-20T19:31:55.420Z,101722.22
2023-04-20T19:34:29.528Z,101729.00
2023-04-20T19:41:30.408Z,101726.22
2023-04-20T19:44:08.600Z,101723.41
2023-04-20T19:46:41.049Z,101720.59
2023-04-20T19:49:09.458Z,101722.22
2023-04-20T19:51:51.265Z,101723.41
2023-04-20T19:54:30.025Z,101721.41
2023-04-20T19:57:02.492Z,101731.81
2023-04-20T19:59:32.785Z,101720.59
2023-04-20T20:02:01.062Z,101721.41
2023-04-20T20:04:29.425Z,101721.41
2023-04-20T20:06:59.428Z,101720.59
2023-04-20T20:09:34.217Z,101726.22
2023-04-20T20:12:04.987Z,101728.19
2023-04-20T20:17:32.863Z,101716.84
2023-04-20T20:20:02.011Z,101717.81
2023-04-20T20:22:36.087Z,101721.41
2023-04-20T20:25:04.235Z,101716.63
2023-04-20T20:27:33.824Z,101727.03
2023-04-20T20:30:01.721Z,101727.03
2023-04-20T20:32:32.250Z,101726.22
2023-04-20T20:35:00.781Z,101729.81
2023-04-20T20:37:34.642Z,101726.22
2023-04-20T20:40:13.594Z,101727.03
2023-04-20T20:42:45.365Z,101729.81
2023-04-20T20:45:14.020Z,101727.03
2023-04-20T20:47:44.054Z,101726.22
2023-04-20T20:50:12.313Z,101723.41
2023-04-20T20:52:40.529Z,101719.78
2023-04-20T20:55:09.121Z,101721.78
2023-04-20T20:57:37.080Z,101724.56
2023-04-20T21:00:10.252Z,101730.19
2023-04-20T21:02:38.931Z,101725.38
2023-04-20T21:05:09.229Z,101723.41
2023-04-20T21:07:37.328Z,101718.16
2023-04-20T21:10:08.166Z,101721.41
2023-04-20T21:12:36.300Z,101723.41
2023-04-20T21:15:17.613Z,101721.41
2023-04-20T21:17:45.876Z,101722.22
2023-04-20T21:20:13.977Z,101727.84
2023-04-20T21:22:42.044Z,101722.22
2023-04-20T21:25:10.513Z,101715.81
2023-04-20T21:27:40.017Z,101715.81
2023-04-20T21:30:08.716Z,101722.22
2023-04-20T21:32:38.329Z,101727.84
2023-04-20T21:35:06.693Z,101723.06
2023-04-20T21:37:34.881Z,101720.59
2023-04-20T21:40:03.987Z,101722.22
2023-04-20T21:42:32.663Z,101727.84
2023-04-20T21:45:03.352Z,101727.84
2023-04-20T21:47:32.860Z,101727.84
2023-04-20T21:50:02.754Z,101723.88
2023-04-20T21:52:33.553Z,101719.91
2023-04-20T21:55:01.735Z,101721.88
2023-04-20T21:57:29.825Z,101731.91
2023-04-20T21:59:58.068Z,101727.16
2023-04-20T22:02:26.415Z,101740.00
2023-04-20T22:04:58.669Z,101727.16
2023-04-20T22:07:28.320Z,101736.72
2023-04-20T22:09:56.433Z,101739.50
2023-04-20T22:12:38.453Z,101742.31
2023-04-20T22:15:29.740Z,101733.91
2023-04-20T22:18:00.643Z,101740.69
2023-04-20T22:20:28.875Z,101735.06
2023-04-20T22:22:58.690Z,101747.09
2023-04-20T22:25:26.870Z,101747.91
2023-04-20T22:27:54.916Z,101747.91
2023-04-20T22:30:23.037Z,101741.50
2023-04-20T22:32:51.320Z,101747.09
2023-04-20T22:35:21.811Z,101749.09
2023-04-20T22:37:49.935Z,101751.06
2023-04-20T22:40:19.457Z,101735.06
2023-04-20T22:42:50.905Z,101747.09
2023-04-20T22:45:20.463Z,101751.88
2023-04-20T22:47:48.871Z,101744.66
2023-04-20T22:50:17.532Z,101740.69
2023-04-20T22:52:47.207Z,101748.25
2023-04-20T22:55:15.562Z,101744.28
2023-04-20T22:57:45.326Z,101747.44
